createdAt,value
2017-11-17T00:00:06.221Z,56.20
2017-11-17T00:00:41.681Z,55.15
2017-11-17T00:01:17.507Z,56.97
2017-11-17T00:01:56.661Z,51.58
2017-11-17T00:02:32.834Z,54.67
2017-11-17T00:03:11.329Z,54.85
2017-11-17T00:03:45.563Z,53.55
2017-11-17T00:04:19.436Z,56.55
2017-11-17T00:04:53.472Z,54.20
2017-11-17T00:05:27.354Z,52.95
2017-11-17T00:06:01.351Z,60.35
2017-11-17T00:06:35.244Z,60.05
2017-11-17T00:07:10.232Z,59.70
2017-11-17T00:07:50.834Z,56.33
2017-11-17T00:08:28.241Z,55.70
2017-11-17T00:09:03.816Z,60.80
2017-11-17T00:09:41.365Z,58.58
2017-11-17T00:10:17.472Z,53.28
2017-11-17T00:10:53.988Z,59.58
2017-11-17T00:11:30.851Z,50.97
2017-11-17T00:12:08.028Z,53.53
2017-11-17T00:12:44.768Z,52.70
2017-11-17T00:13:24.159Z,56.90
2017-11-17T00:14:00.905Z,48.13
2017-11-17T00:14:35.740Z,52.10
2017-11-17T00:15:12.435Z,52.03
2017-11-17T00:15:49.543Z,55.20
2017-11-17T00:16:25.347Z,57.17
2017-11-17T00:17:02.058Z,53.45
2017-11-17T00:17:38.428Z,57.50
2017-11-17T00:18:13.605Z,59.42
2017-11-17T00:18:49.159Z,52.00
2017-11-17T00:19:24.804Z,58.33
2017-11-17T00:20:00.411Z,53.53
2017-11-17T00:20:38.397Z,53.85
2017-11-17T00:22:00.351Z,52.72
2017-11-17T00:22:36.543Z,53.40
2017-11-17T00:23:12.406Z,56.13
2017-11-17T00:23:47.782Z,56.95
2017-11-17T00:24:24.548Z,56.85
2017-11-17T00:25:03.076Z,55.42
2017-11-17T00:25:38.571Z,57.05
2017-11-17T00:26:14.869Z,56.33
2017-11-17T00:26:50.537Z,55.92
2017-11-17T00:27:27.157Z,55.15
2017-11-17T00:28:01.199Z,52.58
2017-11-17T00:28:35.210Z,55.12
2017-11-17T00:29:09.144Z,54.78
2017-11-17T00:29:43.148Z,55.88
2017-11-17T00:30:17.080Z,52.92
2017-11-17T00:30:51.823Z,57.75
2017-11-17T00:31:29.341Z,58.47
2017-11-17T00:32:04.652Z,54.28
2017-11-17T00:32:40.528Z,49.88
2017-11-17T00:33:16.559Z,55.30
2017-11-17T00:33:52.695Z,58.47
2017-11-17T00:34:28.842Z,53.40
2017-11-17T00:35:06.066Z,54.95
2017-11-17T00:35:42.250Z,52.70
2017-11-17T00:36:18.844Z,47.42
2017-11-17T00:36:55.567Z,54.67
2017-11-17T00:37:31.608Z,56.40
2017-11-17T00:38:06.670Z,53.87
2017-11-17T00:38:42.805Z,48.13
2017-11-17T00:39:18.285Z,57.05
2017-11-17T00:39:52.818Z,51.20
2017-11-17T00:40:27.343Z,58.03
2017-11-17T00:41:01.291Z,49.78
2017-11-17T00:41:35.566Z,51.88
2017-11-17T00:42:09.792Z,55.22
2017-11-17T00:42:44.890Z,52.10
2017-11-17T00:43:20.422Z,49.70
2017-11-17T00:43:54.515Z,55.25
2017-11-17T00:44:29.588Z,53.95
2017-11-17T00:45:04.470Z,51.37
2017-11-17T00:45:38.744Z,55.58
2017-11-17T00:46:14.711Z,57.50
2017-11-17T00:46:49.301Z,49.88
2017-11-17T00:47:24.053Z,57.25
2017-11-17T00:47:58.478Z,54.80
2017-11-17T00:48:33.553Z,57.65
2017-11-17T00:49:08.023Z,50.12
2017-11-17T00:49:42.202Z,54.30
2017-11-17T00:50:18.784Z,56.60
2017-11-17T00:50:55.424Z,51.35
2017-11-17T00:51:30.770Z,51.30
2017-11-17T00:52:06.342Z,57.47
2017-11-17T00:52:44.040Z,54.30
2017-11-17T00:53:18.016Z,54.22
2017-11-17T00:53:51.914Z,54.85
2017-11-17T00:54:25.793Z,53.08
2017-11-17T00:54:59.733Z,51.30
2017-11-17T00:55:34.539Z,56.78
2017-11-17T00:56:08.547Z,50.53
2017-11-17T00:56:42.418Z,48.60
2017-11-17T00:57:16.295Z,50.03
2017-11-17T00:57:50.184Z,54.47
2017-11-17T00:58:24.108Z,47.95
2017-11-17T00:58:58.167Z,48.95
2017-11-17T00:59:32.149Z,50.75
2017-11-17T01:00:06.068Z,54.13
2017-11-17T01:00:40.072Z,51.53
2017-11-17T01:01:13.967Z,49.60
2017-11-17T01:01:47.852Z,51.70
2017-11-17T01:02:21.756Z,51.25
2017-11-17T01:02:55.623Z,51.85
2017-11-17T01:03:29.512Z,53.38
2017-11-17T01:04:03.410Z,52.90
2017-11-17T01:04:37.307Z,49.83
2017-11-17T01:05:11.199Z,50.28
2017-11-17T01:05:45.088Z,56.65
2017-11-17T01:06:18.955Z,52.70
2017-11-17T01:06:52.852Z,48.17
2017-11-17T01:07:26.727Z,52.33
2017-11-17T01:08:00.624Z,51.45
2017-11-17T01:08:34.494Z,51.22
2017-11-17T01:09:08.374Z,52.60
2017-11-17T01:09:42.241Z,50.33
2017-11-17T01:10:16.103Z,55.38
2017-11-17T01:10:50.020Z,48.95
2017-11-17T01:11:23.887Z,60.33
2017-11-17T01:11:58.572Z,55.60
2017-11-17T01:12:32.441Z,54.85
2017-11-17T01:13:06.315Z,51.20
2017-11-17T01:13:40.188Z,55.50
2017-11-17T01:14:14.060Z,53.55
2017-11-17T01:14:47.941Z,55.97
2017-11-17T01:15:21.848Z,51.60
2017-11-17T01:15:55.739Z,56.72
2017-11-17T01:16:29.626Z,60.78
2017-11-17T01:17:03.475Z,47.25
2017-11-17T01:17:37.342Z,48.90
2017-11-17T01:18:11.219Z,53.38
2017-11-17T01:18:45.125Z,55.00
2017-11-17T01:19:19.006Z,54.97
2017-11-17T01:19:52.872Z,52.35
2017-11-17T01:20:26.763Z,58.38
2017-11-17T01:21:00.635Z,54.10
2017-11-17T01:21:34.498Z,47.35
2017-11-17T01:22:08.378Z,51.03
2017-11-17T01:22:42.254Z,48.95
2017-11-17T01:23:16.106Z,59.25
2017-11-17T01:23:50.083Z,48.17
2017-11-17T01:24:23.961Z,50.33
2017-11-17T01:24:58.705Z,49.85
2017-11-17T01:25:36.293Z,54.80
2017-11-17T01:26:10.191Z,48.65
2017-11-17T01:26:44.072Z,48.30
2017-11-17T01:27:17.939Z,57.03
2017-11-17T01:27:52.716Z,52.45
2017-11-17T01:28:26.585Z,51.25
2017-11-17T01:29:00.508Z,52.88
2017-11-17T01:29:34.405Z,51.00
2017-11-17T01:30:08.278Z,56.78
2017-11-17T01:30:42.185Z,51.63
2017-11-17T01:31:16.085Z,51.00
2017-11-17T01:31:49.974Z,52.40
2017-11-17T01:32:24.393Z,53.55
2017-11-17T01:32:59.024Z,55.08
2017-11-17T01:33:32.907Z,49.50
2017-11-17T01:34:06.824Z,49.38
2017-11-17T01:34:40.712Z,50.15
2017-11-17T01:35:14.578Z,55.65
2017-11-17T01:35:48.500Z,54.53
2017-11-17T01:36:22.419Z,56.10
2017-11-17T01:36:56.292Z,57.28
2017-11-17T01:37:30.178Z,54.47
2017-11-17T01:38:04.041Z,55.28
2017-11-17T01:38:37.931Z,57.45
2017-11-17T01:39:12.016Z,54.70
2017-11-17T01:39:45.906Z,53.47
2017-11-17T01:40:19.768Z,48.45
2017-11-17T01:40:53.654Z,49.45
2017-11-17T01:41:27.627Z,49.92
2017-11-17T01:42:01.496Z,52.20
2017-11-17T01:42:35.385Z,47.55
2017-11-17T01:43:09.268Z,49.38
2017-11-17T01:43:43.140Z,48.53
2017-11-17T01:44:17.006Z,49.95
2017-11-17T01:44:50.877Z,52.65
2017-11-17T01:45:24.756Z,54.45
2017-11-17T01:45:58.623Z,55.00
2017-11-17T01:46:32.514Z,51.72
2017-11-17T01:47:06.399Z,50.47
2017-11-17T01:47:40.441Z,50.40
2017-11-17T01:48:14.303Z,45.47
2017-11-17T01:48:48.176Z,50.70
2017-11-17T01:49:22.072Z,54.58
2017-11-17T01:49:55.944Z,49.88
2017-11-17T01:50:29.813Z,53.87
2017-11-17T01:51:03.679Z,49.08
2017-11-17T01:51:37.575Z,48.20
2017-11-17T01:53:15.955Z,52.47
2017-11-17T01:53:49.855Z,40.42
2017-11-17T01:54:23.731Z,48.70
2017-11-17T01:54:57.622Z,46.50
2017-11-17T01:55:31.483Z,51.35
2017-11-17T01:56:05.496Z,45.97
2017-11-17T01:56:39.393Z,50.53
2017-11-17T01:57:13.258Z,52.90
2017-11-17T01:57:47.135Z,50.30
2017-11-17T01:58:21.007Z,51.30
2017-11-17T01:58:54.912Z,55.85
2017-11-17T01:59:28.766Z,51.90
2017-11-17T02:00:02.638Z,51.03
2017-11-17T02:00:36.512Z,48.10
2017-11-17T02:01:10.386Z,59.67
2017-11-17T02:01:44.271Z,52.25
2017-11-17T02:02:20.050Z,50.63
2017-11-17T02:02:53.914Z,50.78
2017-11-17T02:03:27.803Z,51.88
2017-11-17T02:04:04.657Z,55.58
2017-11-17T02:04:38.525Z,51.60
2017-11-17T02:05:12.394Z,52.17
2017-11-17T02:05:46.271Z,53.42
2017-11-17T02:06:20.138Z,50.03
2017-11-17T02:06:54.034Z,43.33
2017-11-17T02:07:27.906Z,46.50
2017-11-17T02:08:01.780Z,55.08
2017-11-17T02:08:35.693Z,52.40
2017-11-17T02:09:09.563Z,50.65
2017-11-17T02:09:43.458Z,48.05
2017-11-17T02:10:17.321Z,46.45
2017-11-17T02:10:51.211Z,57.97
2017-11-17T02:11:25.115Z,50.03
2017-11-17T02:11:59.006Z,53.97
2017-11-17T02:12:32.875Z,51.78
2017-11-17T02:13:06.779Z,49.70
2017-11-17T02:13:40.643Z,52.20
2017-11-17T02:14:14.515Z,46.72
2017-11-17T02:14:48.594Z,51.53
2017-11-17T02:15:22.455Z,48.40
2017-11-17T02:15:56.333Z,49.95
2017-11-17T02:16:30.339Z,47.58
2017-11-17T02:17:04.243Z,50.90
2017-11-17T02:17:38.115Z,49.85
2017-11-17T02:18:11.989Z,50.92
2017-11-17T02:18:45.847Z,48.80
2017-11-17T02:19:19.716Z,52.95
2017-11-17T02:19:53.583Z,45.45
2017-11-17T02:20:27.456Z,46.42
2017-11-17T02:21:01.392Z,51.10
2017-11-17T02:21:35.295Z,51.53
2017-11-17T02:22:09.171Z,49.22
2017-11-17T02:22:43.078Z,44.90
2017-11-17T02:23:16.977Z,52.75
2017-11-17T02:23:50.867Z,51.65
2017-11-17T02:24:24.763Z,48.78
2017-11-17T02:24:59.384Z,48.13
2017-11-17T02:25:33.264Z,48.10
2017-11-17T02:26:07.202Z,44.30
2017-11-17T02:26:41.063Z,49.63
2017-11-17T02:27:14.963Z,50.67
2017-11-17T02:27:48.864Z,52.28
2017-11-17T02:28:22.736Z,54.92
2017-11-17T02:28:56.605Z,49.38
2017-11-17T02:29:30.507Z,47.55
2017-11-17T02:30:04.394Z,47.55
2017-11-17T02:30:38.258Z,54.13
2017-11-17T02:31:12.124Z,45.15
2017-11-17T02:31:45.979Z,50.72
2017-11-17T02:32:19.868Z,47.17
2017-11-17T02:32:53.734Z,52.58
2017-11-17T02:33:27.618Z,47.00
2017-11-17T02:34:01.488Z,55.17
2017-11-17T02:34:35.373Z,50.58
2017-11-17T02:35:09.266Z,51.25
2017-11-17T02:35:43.141Z,54.25
2017-11-17T02:36:17.032Z,51.55
2017-11-17T02:36:50.930Z,54.33
2017-11-17T02:37:24.975Z,48.50
2017-11-17T02:37:58.856Z,47.65
2017-11-17T02:38:32.745Z,56.20
2017-11-17T02:39:06.625Z,50.12
2017-11-17T02:39:40.502Z,48.15
2017-11-17T02:40:14.386Z,50.90
2017-11-17T02:40:48.272Z,54.75
2017-11-17T02:41:22.141Z,48.58
2017-11-17T02:41:56.235Z,50.28
2017-11-17T02:42:30.533Z,54.17
2017-11-17T02:43:04.423Z,48.95
2017-11-17T02:43:38.292Z,48.92
2017-11-17T02:44:12.185Z,52.03
2017-11-17T02:44:46.043Z,51.42
2017-11-17T02:45:19.941Z,49.00
2017-11-17T02:45:53.801Z,52.95
2017-11-17T02:46:27.687Z,50.90
2017-11-17T02:47:01.597Z,51.47
2017-11-17T02:47:35.491Z,52.75
2017-11-17T02:48:09.366Z,52.05
2017-11-17T02:48:43.284Z,50.97
2017-11-17T02:49:17.150Z,48.17
2017-11-17T02:49:51.032Z,49.40
2017-11-17T02:50:24.894Z,46.50
2017-11-17T02:50:58.771Z,46.10
2017-11-17T02:51:32.654Z,54.92
2017-11-17T02:52:06.536Z,51.50
2017-11-17T02:52:40.417Z,57.38
2017-11-17T02:53:14.510Z,50.78
2017-11-17T02:53:48.418Z,53.20
2017-11-17T02:54:22.304Z,52.28
2017-11-17T02:54:56.250Z,55.47
2017-11-17T02:55:30.132Z,46.13
2017-11-17T02:56:03.988Z,49.55
2017-11-17T02:56:37.926Z,51.45
2017-11-17T02:57:11.821Z,44.95
2017-11-17T02:57:45.696Z,50.30
2017-11-17T02:58:19.567Z,54.65
2017-11-17T02:58:53.452Z,54.10
2017-11-17T02:59:27.357Z,52.08
2017-11-17T03:00:01.257Z,54.90
2017-11-17T03:00:35.130Z,53.72
2017-11-17T03:01:09.189Z,49.80
2017-11-17T03:01:43.070Z,55.95
2017-11-17T03:02:16.962Z,56.90
2017-11-17T03:02:50.873Z,50.88
2017-11-17T03:03:24.764Z,56.22
2017-11-17T03:03:58.637Z,53.85
2017-11-17T03:04:32.511Z,54.65
2017-11-17T03:05:06.399Z,49.38
2017-11-17T03:05:40.372Z,54.70
2017-11-17T03:06:14.247Z,51.65
2017-11-17T03:06:48.115Z,52.80
2017-11-17T03:07:21.987Z,50.12
2017-11-17T03:07:55.888Z,56.20
2017-11-17T03:08:29.754Z,49.35
2017-11-17T03:09:03.631Z,55.67
2017-11-17T03:09:37.497Z,56.45
2017-11-17T03:10:11.371Z,53.83
2017-11-17T03:10:45.249Z,61.83
2017-11-17T03:11:19.107Z,54.75
2017-11-17T03:11:52.971Z,59.88
2017-11-17T03:12:26.884Z,56.67
2017-11-17T03:13:00.751Z,60.05
2017-11-17T03:13:34.615Z,55.67
2017-11-17T03:14:08.518Z,59.33
2017-11-17T03:14:42.377Z,57.08
2017-11-17T03:15:16.236Z,57.22
2017-11-17T03:15:50.122Z,59.15
2017-11-17T03:16:23.997Z,50.85
2017-11-17T03:16:58.063Z,59.33
2017-11-17T03:17:31.931Z,56.92
2017-11-17T03:18:05.802Z,54.78
2017-11-17T03:18:39.837Z,56.00
2017-11-17T03:19:13.704Z,61.37
2017-11-17T03:19:47.584Z,50.00
2017-11-17T03:20:21.522Z,68.32
2017-11-17T03:20:55.390Z,61.58
2017-11-17T03:21:29.288Z,53.33
2017-11-17T03:22:03.168Z,53.55
2017-11-17T03:22:37.035Z,60.85
2017-11-17T03:23:10.928Z,50.58
2017-11-17T03:23:44.896Z,55.38
2017-11-17T03:24:18.761Z,60.60
2017-11-17T03:24:52.793Z,56.05
2017-11-17T03:25:26.671Z,53.20
2017-11-17T03:26:00.545Z,62.70
2017-11-17T03:26:34.415Z,66.20
2017-11-17T03:27:08.278Z,56.00
2017-11-17T03:27:42.167Z,59.58
2017-11-17T03:28:16.165Z,57.42
2017-11-17T03:28:50.027Z,64.60
2017-11-17T03:29:23.907Z,60.42
2017-11-17T03:29:57.789Z,57.45
2017-11-17T03:30:31.773Z,57.08
2017-11-17T03:31:05.664Z,54.15
2017-11-17T03:31:39.527Z,54.30
2017-11-17T03:32:13.416Z,65.97
2017-11-17T03:32:47.422Z,58.20
2017-11-17T03:33:21.287Z,58.97
2017-11-17T03:33:55.147Z,53.58
2017-11-17T03:34:29.012Z,57.40
2017-11-17T03:35:02.883Z,59.10
2017-11-17T03:35:36.771Z,64.75
2017-11-17T03:36:10.644Z,58.95
2017-11-17T03:36:44.558Z,64.72
2017-11-17T03:37:18.435Z,56.70
2017-11-17T03:37:52.286Z,60.90
2017-11-17T03:38:26.181Z,55.70
2017-11-17T03:39:00.066Z,59.55
2017-11-17T03:39:33.935Z,69.00
2017-11-17T03:40:07.810Z,64.68
2017-11-17T03:40:41.692Z,57.62
2017-11-17T03:41:15.556Z,66.60
2017-11-17T03:41:49.442Z,62.75
2017-11-17T03:42:23.316Z,65.00
2017-11-17T03:42:57.204Z,67.57
2017-11-17T03:43:31.092Z,59.63
2017-11-17T03:44:04.952Z,64.37
2017-11-17T03:44:38.820Z,59.13
2017-11-17T03:45:12.689Z,58.47
2017-11-17T03:45:46.552Z,59.45
2017-11-17T03:46:20.443Z,59.63
2017-11-17T03:46:54.316Z,61.75
2017-11-17T03:47:28.185Z,62.75
2017-11-17T03:48:02.053Z,60.70
2017-11-17T03:48:35.935Z,63.15
2017-11-17T03:49:09.798Z,61.92
2017-11-17T03:49:43.675Z,69.82
2017-11-17T03:50:17.556Z,62.83
2017-11-17T03:50:51.559Z,62.80
2017-11-17T03:51:25.428Z,61.47
2017-11-17T03:51:59.297Z,63.22
2017-11-17T03:52:33.159Z,66.43
2017-11-17T03:53:07.036Z,62.72
2017-11-17T03:53:40.932Z,73.60
2017-11-17T03:54:14.800Z,72.95
2017-11-17T03:54:48.680Z,64.03
2017-11-17T03:55:22.560Z,68.82
2017-11-17T03:55:56.442Z,61.65
2017-11-17T03:56:30.336Z,63.08
2017-11-17T03:57:04.230Z,62.85
2017-11-17T03:57:38.114Z,72.43
2017-11-17T03:58:11.984Z,64.85
2017-11-17T03:58:45.887Z,64.47
2017-11-17T03:59:19.756Z,67.28
2017-11-17T03:59:53.616Z,64.90
2017-11-17T04:00:27.495Z,63.05
2017-11-17T04:01:01.352Z,70.43
2017-11-17T04:01:35.238Z,60.33
2017-11-17T04:02:09.138Z,64.50
2017-11-17T04:02:43.010Z,66.10
2017-11-17T04:03:16.884Z,66.32
2017-11-17T04:03:50.761Z,67.53
2017-11-17T04:04:24.632Z,72.15
2017-11-17T04:04:58.501Z,70.47
2017-11-17T04:05:32.366Z,70.62
2017-11-17T04:06:06.239Z,70.95
2017-11-17T04:06:40.135Z,75.60
2017-11-17T04:07:14.011Z,65.15
2017-11-17T04:07:47.884Z,69.60
2017-11-17T04:08:21.761Z,75.37
2017-11-17T04:08:55.641Z,76.32
2017-11-17T04:09:29.510Z,76.72
2017-11-17T04:10:03.401Z,67.62
2017-11-17T04:10:37.260Z,65.78
2017-11-17T04:11:11.148Z,73.93
2017-11-17T04:11:45.020Z,70.55
2017-11-17T04:12:18.901Z,72.20
2017-11-17T04:12:52.784Z,76.62
2017-11-17T04:13:26.666Z,70.70
2017-11-17T04:14:00.552Z,72.85
2017-11-17T04:14:34.420Z,68.25
2017-11-17T04:15:08.298Z,70.00
2017-11-17T04:15:42.156Z,62.72
2017-11-17T04:16:16.042Z,70.22
2017-11-17T04:16:50.060Z,74.45
2017-11-17T04:17:23.905Z,85.15
2017-11-17T04:17:57.783Z,65.18
2017-11-17T04:18:31.676Z,73.47
2017-11-17T04:19:05.597Z,70.03
2017-11-17T04:19:39.467Z,78.60
2017-11-17T04:20:13.404Z,74.03
2017-11-17T04:20:47.296Z,72.68
2017-11-17T04:21:21.296Z,78.35
2017-11-17T04:21:55.184Z,68.47
2017-11-17T04:22:29.045Z,71.18
2017-11-17T04:23:02.984Z,79.68
2017-11-17T04:23:36.857Z,68.07
2017-11-17T04:24:10.743Z,67.93
2017-11-17T04:24:44.621Z,74.85
2017-11-17T04:25:18.515Z,66.18
2017-11-17T04:25:52.392Z,75.62
2017-11-17T04:26:26.257Z,80.07
2017-11-17T04:27:00.130Z,83.72
2017-11-17T04:27:33.995Z,75.20
2017-11-17T04:28:07.901Z,70.62
2017-11-17T04:28:41.789Z,69.20
2017-11-17T04:29:15.724Z,68.70
2017-11-17T04:29:49.595Z,70.90
2017-11-17T04:30:23.482Z,77.05
2017-11-17T04:30:57.359Z,76.43
2017-11-17T04:31:31.222Z,67.10
2017-11-17T04:32:05.126Z,73.90
2017-11-17T04:32:38.998Z,69.60
2017-11-17T04:33:12.873Z,74.93
2017-11-17T04:33:46.769Z,70.50
2017-11-17T04:34:20.665Z,71.95
2017-11-17T04:34:54.554Z,75.62
2017-11-17T04:35:28.571Z,66.28
2017-11-17T04:36:02.445Z,68.65
2017-11-17T04:36:36.303Z,73.57
2017-11-17T04:37:10.268Z,74.53
2017-11-17T04:37:44.135Z,85.03
2017-11-17T04:38:18.012Z,75.62
2017-11-17T04:38:51.920Z,71.20
2017-11-17T04:39:25.803Z,77.32
2017-11-17T04:39:59.680Z,71.68
2017-11-17T04:40:33.571Z,74.85
2017-11-17T04:41:07.448Z,68.45
2017-11-17T04:41:41.341Z,72.85
2017-11-17T04:42:15.204Z,71.45
2017-11-17T04:42:49.080Z,69.93
2017-11-17T04:43:22.932Z,70.47
2017-11-17T04:43:56.890Z,68.57
2017-11-17T04:44:30.773Z,69.22
2017-11-17T04:45:04.643Z,67.12
2017-11-17T04:45:38.515Z,77.45
2017-11-17T04:46:12.407Z,70.90
2017-11-17T04:46:46.288Z,81.43
2017-11-17T04:47:20.163Z,75.57
2017-11-17T04:47:54.031Z,79.72
2017-11-17T04:48:27.897Z,63.45
2017-11-17T04:49:01.822Z,74.05
2017-11-17T04:49:35.691Z,69.90
2017-11-17T04:50:09.568Z,71.47
2017-11-17T04:50:43.465Z,73.93
2017-11-17T04:51:17.327Z,69.97
2017-11-17T04:51:51.201Z,66.20
2017-11-17T04:52:25.071Z,70.97
2017-11-17T04:52:58.939Z,70.90
2017-11-17T04:53:32.842Z,72.90
2017-11-17T04:54:06.745Z,79.65
2017-11-17T04:54:40.635Z,67.40
2017-11-17T04:55:14.701Z,77.57
2017-11-17T04:55:48.585Z,65.45
2017-11-17T04:56:22.452Z,70.18
2017-11-17T04:56:56.387Z,63.10
2017-11-17T04:57:30.386Z,69.93
2017-11-17T04:58:04.261Z,68.10
2017-11-17T04:58:38.132Z,66.32
2017-11-17T04:59:12.022Z,73.00
2017-11-17T04:59:45.918Z,70.85
2017-11-17T05:00:19.808Z,61.72
2017-11-17T05:00:53.678Z,63.47
2017-11-17T05:01:27.570Z,70.15
2017-11-17T05:02:01.447Z,62.10
2017-11-17T05:02:35.317Z,72.00
2017-11-17T05:03:09.220Z,70.65
2017-11-17T05:03:43.151Z,69.53
2017-11-17T05:04:17.020Z,68.85
2017-11-17T05:04:50.915Z,61.90
2017-11-17T05:05:24.797Z,65.25
2017-11-17T05:05:58.685Z,62.10
2017-11-17T05:06:32.591Z,65.07
2017-11-17T05:07:06.478Z,72.22
2017-11-17T05:07:40.355Z,66.55
2017-11-17T05:08:14.230Z,69.60
2017-11-17T05:08:48.097Z,75.15
2017-11-17T05:09:21.967Z,64.00
2017-11-17T05:09:55.863Z,68.22
2017-11-17T05:10:29.743Z,69.78
2017-11-17T05:11:03.619Z,71.80
2017-11-17T05:11:37.496Z,69.53
2017-11-17T05:12:11.359Z,63.38
2017-11-17T05:12:45.245Z,63.75
2017-11-17T05:13:19.135Z,70.07
2017-11-17T05:13:53.012Z,70.35
2017-11-17T05:14:26.893Z,70.07
2017-11-17T05:15:00.830Z,70.82
2017-11-17T05:15:34.738Z,74.72
2017-11-17T05:16:08.640Z,74.43
2017-11-17T05:16:42.522Z,70.00
2017-11-17T05:17:16.404Z,69.65
2017-11-17T05:17:50.289Z,72.65
2017-11-17T05:18:24.179Z,70.37
2017-11-17T05:18:58.066Z,64.68
2017-11-17T05:29:11.988Z,53.78
2017-11-17T05:29:45.868Z,58.85
2017-11-17T05:30:19.830Z,59.88
2017-11-17T05:30:53.712Z,72.68
2017-11-17T05:31:27.606Z,62.85
2017-11-17T05:32:01.476Z,70.57
2017-11-17T05:32:35.352Z,77.50
2017-11-17T05:33:09.217Z,73.18
2017-11-17T05:33:43.084Z,64.07
2017-11-17T05:34:16.970Z,69.37
2017-11-17T05:34:50.872Z,75.43
2017-11-17T05:35:24.838Z,71.55
2017-11-17T05:35:58.718Z,77.43
2017-11-17T05:36:32.600Z,82.28
2017-11-17T05:37:06.514Z,79.60
2017-11-17T05:37:40.400Z,66.90
2017-11-17T05:38:14.266Z,66.15
2017-11-17T05:38:48.164Z,66.05
2017-11-17T05:39:22.048Z,66.93
2017-11-17T05:39:56.023Z,67.35
2017-11-17T05:40:29.898Z,77.80
2017-11-17T05:41:03.771Z,71.65
2017-11-17T05:41:37.710Z,70.28
2017-11-17T05:42:11.595Z,68.53
2017-11-17T05:42:45.459Z,64.95
2017-11-17T05:43:19.357Z,73.50
2017-11-17T05:43:53.284Z,65.80
2017-11-17T05:44:27.193Z,71.03
2017-11-17T05:45:01.052Z,69.32
2017-11-17T05:45:34.939Z,79.47
2017-11-17T05:46:08.821Z,76.22
2017-11-17T05:46:42.751Z,60.60
2017-11-17T05:47:16.625Z,67.25
2017-11-17T05:47:50.512Z,57.92
2017-11-17T05:48:24.399Z,71.18
2017-11-17T05:48:58.276Z,62.40
2017-11-17T05:49:32.180Z,52.78
2017-11-17T05:50:06.061Z,60.08
2017-11-17T05:50:40.021Z,59.83
2017-11-17T05:51:13.896Z,61.60
2017-11-17T05:51:47.780Z,71.10
2017-11-17T05:52:21.660Z,61.60
2017-11-17T05:52:55.535Z,67.78
2017-11-17T05:53:29.419Z,64.43
2017-11-17T05:54:03.383Z,62.05
2017-11-17T05:54:37.275Z,69.20
2017-11-17T05:55:11.173Z,70.55
2017-11-17T05:55:45.036Z,67.55
2017-11-17T05:56:18.928Z,63.72
2017-11-17T05:56:52.777Z,62.83
2017-11-17T05:57:26.728Z,68.90
2017-11-17T05:58:00.612Z,62.17
2017-11-17T05:58:34.494Z,77.55
2017-11-17T05:59:08.397Z,70.32
2017-11-17T05:59:42.295Z,74.12
2017-11-17T06:00:16.233Z,63.40
2017-11-17T06:00:50.177Z,75.72
2017-11-17T06:01:24.154Z,67.07
2017-11-17T06:01:58.035Z,68.55
2017-11-17T06:02:31.907Z,66.28
2017-11-17T06:03:05.838Z,64.15
2017-11-17T06:03:39.744Z,68.10
2017-11-17T06:04:13.714Z,60.72
2017-11-17T06:04:47.676Z,69.82
2017-11-17T06:05:21.612Z,77.03
2017-11-17T06:05:58.176Z,72.65
2017-11-17T06:06:37.716Z,70.05
2017-11-17T06:07:11.582Z,64.53
2017-11-17T06:07:45.528Z,75.80
2017-11-17T06:08:19.414Z,64.35
2017-11-17T06:08:53.308Z,82.65
2017-11-17T06:09:27.511Z,68.43
2017-11-17T06:10:01.416Z,69.18
2017-11-17T06:10:35.287Z,66.50
2017-11-17T06:11:09.212Z,72.07
2017-11-17T06:11:43.152Z,63.05
2017-11-17T06:12:17.023Z,68.62
2017-11-17T06:12:50.976Z,69.22
2017-11-17T06:13:24.976Z,63.97
2017-11-17T06:13:58.909Z,67.60
2017-11-17T06:14:32.777Z,65.87
2017-11-17T06:15:06.680Z,70.35
2017-11-17T06:15:40.555Z,71.00
2017-11-17T06:16:14.420Z,62.78
2017-11-17T06:16:48.331Z,67.50
2017-11-17T06:17:22.325Z,65.28
2017-11-17T06:17:56.203Z,78.10
2017-11-17T06:18:30.076Z,67.53
2017-11-17T06:19:03.984Z,66.65
2017-11-17T06:19:37.853Z,62.15
2017-11-17T06:20:11.807Z,65.00
2017-11-17T06:20:45.715Z,61.60
2017-11-17T06:21:19.790Z,64.00
2017-11-17T06:21:53.669Z,62.38
2017-11-17T06:22:27.681Z,67.37
2017-11-17T06:23:01.584Z,62.72
2017-11-17T06:23:35.544Z,71.10
2017-11-17T06:24:09.609Z,65.05
2017-11-17T06:24:43.505Z,64.35
2017-11-17T06:25:17.469Z,61.83
2017-11-17T06:25:51.360Z,66.78
2017-11-17T06:26:25.273Z,58.08
2017-11-17T06:26:59.253Z,63.75
2017-11-17T06:27:33.354Z,59.00
2017-11-17T06:28:07.364Z,58.10
2017-11-17T06:28:41.249Z,59.83
2017-11-17T06:29:15.147Z,59.83
2017-11-17T06:29:49.096Z,63.30
2017-11-17T06:30:22.992Z,79.43
2017-11-17T06:30:57.215Z,69.53
2017-11-17T06:31:31.107Z,56.97
2017-11-17T06:32:05.238Z,63.08
2017-11-17T06:32:39.110Z,64.20
2017-11-17T06:33:12.997Z,57.17
2017-11-17T06:33:46.866Z,62.70
2017-11-17T06:34:21.945Z,55.80
2017-11-17T06:34:56.011Z,59.22
2017-11-17T06:35:30.141Z,52.33
2017-11-17T06:36:04.076Z,54.78
2017-11-17T06:36:38.010Z,51.35
2017-11-17T06:37:11.971Z,51.37
2017-11-17T06:37:45.886Z,54.15
2017-11-17T06:38:19.893Z,52.78
2017-11-17T06:38:53.781Z,56.40
2017-11-17T06:39:27.644Z,55.58
2017-11-17T06:40:01.713Z,51.65
2017-11-17T06:40:35.677Z,56.10
2017-11-17T06:41:09.591Z,59.50
2017-11-17T06:41:43.544Z,50.97
2017-11-17T06:42:17.425Z,51.40
2017-11-17T06:42:51.323Z,49.40
2017-11-17T06:43:25.232Z,56.55
2017-11-17T06:43:59.140Z,51.20
2017-11-17T06:44:33.009Z,53.05
2017-11-17T06:45:07.024Z,58.65
2017-11-17T06:45:41.046Z,53.70
2017-11-17T06:46:14.920Z,50.80
2017-11-17T06:46:48.789Z,46.40
2017-11-17T06:47:22.660Z,57.88
2017-11-17T06:47:56.578Z,49.13
2017-11-17T06:48:30.444Z,53.30
2017-11-17T06:49:04.550Z,49.25
2017-11-17T06:49:38.489Z,50.20
2017-11-17T06:50:12.391Z,51.72
2017-11-17T06:50:46.336Z,54.97
2017-11-17T06:51:20.233Z,51.15
2017-11-17T06:51:54.113Z,50.38
2017-11-17T06:52:28.071Z,48.58
2017-11-17T06:53:01.980Z,44.30
2017-11-17T06:53:35.852Z,46.58
2017-11-17T06:54:09.867Z,50.35
2017-11-17T06:54:44.625Z,42.65
2017-11-17T06:55:18.537Z,51.67
2017-11-17T06:55:52.418Z,49.95
2017-11-17T06:56:26.290Z,46.97
2017-11-17T06:57:00.414Z,57.85
2017-11-17T06:57:34.296Z,42.47
2017-11-17T06:58:08.187Z,47.17
2017-11-17T06:58:42.133Z,44.97
2017-11-17T06:59:16.045Z,49.25
2017-11-17T06:59:49.999Z,45.50
2017-11-17T07:00:23.870Z,52.30
2017-11-17T07:00:57.795Z,45.38
2017-11-17T07:01:31.990Z,54.22
2017-11-17T07:02:05.855Z,43.17
2017-11-17T07:02:39.886Z,44.53
2017-11-17T07:03:14.009Z,45.05
2017-11-17T07:03:47.880Z,45.97
2017-11-17T07:04:21.825Z,46.92
2017-11-17T07:04:55.741Z,52.17
2017-11-17T07:05:29.636Z,45.25
2017-11-17T07:06:03.607Z,45.33
2017-11-17T07:06:37.517Z,43.70
2017-11-17T07:07:11.440Z,46.67
2017-11-17T07:07:45.386Z,46.13
2017-11-17T07:08:19.275Z,40.90
2017-11-17T07:08:53.166Z,47.10
2017-11-17T07:09:27.152Z,41.80
2017-11-17T07:10:01.031Z,44.75
2017-11-17T07:10:34.888Z,51.28
2017-11-17T07:11:08.779Z,63.70
2017-11-17T07:11:42.645Z,43.75
2017-11-17T07:12:16.602Z,49.58
2017-11-17T07:12:50.550Z,50.67
2017-11-17T07:13:24.426Z,47.80
2017-11-17T07:13:58.294Z,49.05
2017-11-17T07:14:32.184Z,54.40
2017-11-17T07:15:06.065Z,51.45
2017-11-17T07:15:39.958Z,42.38
2017-11-17T07:16:13.883Z,52.10
2017-11-17T07:16:47.764Z,55.33
2017-11-17T07:17:21.639Z,55.70
2017-11-17T07:17:55.516Z,60.42
2017-11-17T07:18:29.415Z,52.33
2017-11-17T07:19:03.386Z,62.85
2017-11-17T07:19:37.405Z,55.92
2017-11-17T07:20:11.450Z,46.50
2017-11-17T07:20:45.319Z,51.40
2017-11-17T07:21:19.250Z,48.63
2017-11-17T07:21:53.131Z,47.65
2017-11-17T07:22:27.024Z,56.92
2017-11-17T07:23:03.743Z,58.00
2017-11-17T07:23:37.895Z,47.42
2017-11-17T07:24:11.796Z,49.45
2017-11-17T07:24:45.727Z,58.13
2017-11-17T07:25:19.623Z,48.80
2017-11-17T07:25:53.539Z,54.92
2017-11-17T07:26:27.539Z,50.75
2017-11-17T07:27:01.412Z,48.03
2017-11-17T07:27:35.354Z,46.97
2017-11-17T07:28:09.468Z,49.42
2017-11-17T07:28:43.341Z,59.20
2017-11-17T07:29:17.209Z,51.63
2017-11-17T07:29:51.090Z,48.13
2017-11-17T07:30:24.943Z,60.55
2017-11-17T07:30:58.896Z,43.45